createdAt,value
2023-01-25T00:02:07.973Z,4.47
2023-01-25T00:04:34.833Z,4.49
2023-01-25T00:07:01.777Z,4.50
2023-01-25T00:09:28.576Z,4.51
2023-01-25T00:11:57.979Z,4.50
2023-01-25T00:14:25.381Z,4.52
2023-01-25T00:16:52.260Z,4.53
2023-01-25T00:19:19.361Z,4.53
2023-01-25T00:21:46.182Z,4.54
2023-01-25T00:24:14.514Z,4.52
2023-01-25T00:26:44.064Z,4.53
2023-01-25T00:29:14.322Z,4.53
2023-01-25T00:31:59.030Z,4.54
2023-01-25T00:34:25.861Z,4.52
2023-01-25T00:36:57.661Z,4.50
2023-01-25T00:39:26.998Z,4.51
2023-01-25T00:41:54.589Z,4.52
2023-01-25T00:44:21.987Z,4.52
2023-01-25T00:46:48.795Z,4.52
2023-01-25T00:49:24.387Z,4.52
2023-01-25T00:51:52.513Z,4.53
2023-01-25T00:54:19.631Z,4.53
2023-01-25T00:56:46.919Z,4.51
2023-01-25T00:59:14.137Z,4.51
2023-01-25T01:01:41.617Z,4.48
2023-01-25T01:04:08.767Z,4.48
2023-01-25T01:06:37.351Z,4.48
2023-01-25T01:09:06.156Z,4.46
2023-01-25T01:11:33.190Z,4.45
2023-01-25T01:14:00.327Z,4.46
2023-01-25T01:16:27.358Z,4.44
2023-01-25T01:18:54.319Z,4.44
2023-01-25T01:21:21.645Z,4.46
2023-01-25T01:23:48.624Z,4.45
2023-01-25T01:26:19.492Z,4.47
2023-01-25T01:28:46.792Z,4.49
2023-01-25T01:31:17.732Z,4.48
2023-01-25T01:33:53.853Z,4.48
2023-01-25T01:36:22.806Z,4.46
2023-01-25T01:38:49.896Z,4.46
2023-01-25T01:41:17.507Z,4.44
2023-01-25T01:43:45.052Z,4.44
2023-01-25T01:46:37.437Z,4.43
2023-01-25T01:49:17.180Z,4.45
2023-01-25T01:51:56.801Z,4.46
2023-01-25T01:54:40.764Z,4.44
2023-01-25T01:57:16.614Z,4.43
2023-01-25T01:59:53.162Z,4.39
2023-01-25T02:02:20.314Z,4.38
2023-01-25T02:04:49.261Z,4.37
2023-01-25T02:07:35.250Z,4.35
2023-01-25T02:10:04.970Z,4.34
2023-01-25T02:12:32.599Z,4.32
2023-01-25T02:15:00.101Z,4.29
2023-01-25T02:17:31.092Z,4.28
2023-01-25T02:20:22.718Z,4.29
2023-01-25T02:23:05.254Z,4.29
2023-01-25T02:25:32.090Z,4.31
2023-01-25T02:28:11.157Z,4.29
2023-01-25T02:30:38.155Z,4.28
2023-01-25T02:33:04.979Z,4.29
2023-01-25T02:35:43.085Z,4.30
2023-01-25T02:38:13.876Z,4.30
2023-01-25T02:41:02.495Z,4.31
2023-01-25T02:43:34.293Z,4.32
2023-01-25T02:46:14.890Z,4.32
2023-01-25T02:48:44.810Z,4.33
2023-01-25T02:51:12.283Z,4.32
2023-01-25T02:53:40.509Z,4.32
2023-01-25T02:56:07.633Z,4.30
2023-01-25T02:58:34.584Z,4.32
2023-01-25T03:01:01.333Z,4.33
2023-01-25T03:03:28.125Z,4.31
2023-01-25T03:05:54.927Z,4.31
2023-01-25T03:08:21.785Z,4.31
2023-01-25T03:10:51.509Z,4.34
2023-01-25T03:13:18.254Z,4.33
2023-01-25T03:15:45.509Z,4.34
2023-01-25T03:18:12.627Z,4.36
2023-01-25T03:20:39.393Z,4.37
2023-01-25T03:23:06.194Z,4.38
2023-01-25T03:25:33.842Z,4.38
2023-01-25T03:28:09.011Z,4.42
2023-01-25T03:30:37.071Z,4.45
2023-01-25T03:33:04.615Z,4.45
2023-01-25T03:35:31.753Z,4.46
2023-01-25T03:37:58.683Z,4.47
2023-01-25T03:40:25.537Z,4.49
2023-01-25T03:42:53.717Z,4.49
2023-01-25T03:45:20.593Z,4.51
2023-01-25T03:47:47.825Z,4.51
2023-01-25T03:50:15.018Z,4.51
2023-01-25T03:52:48.374Z,4.53
2023-01-25T03:55:17.895Z,4.53
2023-01-25T03:57:49.170Z,4.54
2023-01-25T04:00:17.174Z,4.57
2023-01-25T04:02:47.548Z,4.58
2023-01-25T04:05:17.788Z,4.54
2023-01-25T04:07:45.000Z,4.52
2023-01-25T04:10:13.489Z,4.48
2023-01-25T04:12:44.272Z,4.47
2023-01-25T04:15:11.642Z,4.46
2023-01-25T04:17:39.780Z,4.45
2023-01-25T04:20:16.177Z,4.45
2023-01-25T04:22:44.038Z,4.42
2023-01-25T04:25:11.364Z,4.41
2023-01-25T04:27:43.939Z,4.42
2023-01-25T04:30:14.211Z,4.41
2023-01-25T04:32:43.263Z,4.43
2023-01-25T04:35:23.675Z,4.42
2023-01-25T04:37:58.732Z,4.43
2023-01-25T04:40:31.060Z,4.43
2023-01-25T04:42:58.283Z,4.45
2023-01-25T04:45:26.068Z,4.46
2023-01-25T04:48:01.317Z,4.42
2023-01-25T04:50:28.481Z,4.31
2023-01-25T04:52:55.776Z,4.19
2023-01-25T04:55:23.821Z,4.10
2023-01-25T04:57:52.427Z,4.03
2023-01-25T05:00:20.137Z,3.95
2023-01-25T05:02:49.300Z,3.85
2023-01-25T05:05:16.407Z,3.86
2023-01-25T05:07:45.410Z,3.95
2023-01-25T05:10:13.427Z,4.09
2023-01-25T05:12:53.277Z,4.28
2023-01-25T05:15:20.822Z,4.33
2023-01-25T05:17:47.673Z,4.28
2023-01-25T05:20:14.465Z,4.16
2023-01-25T05:22:41.341Z,4.13
2023-01-25T05:25:28.509Z,4.05
2023-01-25T05:27:55.881Z,4.10
2023-01-25T05:30:51.747Z,4.27
2023-01-25T05:33:25.115Z,4.45
2023-01-25T05:35:51.973Z,4.64
2023-01-25T05:38:18.831Z,4.83
2023-01-25T05:40:45.703Z,5.00
2023-01-25T05:43:12.539Z,5.11
2023-01-25T05:45:40.357Z,5.20
2023-01-25T05:48:08.075Z,5.26
2023-01-25T05:50:35.467Z,5.36
2023-01-25T05:53:08.856Z,5.41
2023-01-25T05:55:37.503Z,5.47
2023-01-25T05:58:08.623Z,5.49
2023-01-25T06:00:35.463Z,5.51
2023-01-25T06:03:02.924Z,5.51
2023-01-25T06:05:32.147Z,5.54
2023-01-25T06:07:59.613Z,5.47
2023-01-25T06:10:33.086Z,5.41
2023-01-25T06:13:00.138Z,5.41
2023-01-25T06:15:27.089Z,5.39
2023-01-25T06:17:57.811Z,5.37
2023-01-25T06:20:32.632Z,5.38
2023-01-25T06:23:05.259Z,5.39
2023-01-25T06:25:32.027Z,5.37
2023-01-25T06:27:58.747Z,5.36
2023-01-25T06:30:25.662Z,5.35
2023-01-25T06:32:52.379Z,5.34
2023-01-25T06:35:19.150Z,5.33
2023-01-25T06:37:46.214Z,5.33
2023-01-25T06:40:13.165Z,5.32
2023-01-25T06:42:39.912Z,5.30
2023-01-25T06:45:07.852Z,5.31
2023-01-25T06:47:35.121Z,5.24
2023-01-25T06:50:02.061Z,5.24
2023-01-25T06:52:28.905Z,5.26
2023-01-25T06:54:55.715Z,5.26
2023-01-25T06:57:22.504Z,5.23
2023-01-25T06:59:49.260Z,5.22
2023-01-25T07:02:16.349Z,5.21
2023-01-25T07:04:43.269Z,5.16
2023-01-25T07:07:10.432Z,5.13
2023-01-25T07:09:37.513Z,5.07
2023-01-25T07:12:07.100Z,5.01
2023-01-25T07:14:34.183Z,4.84
2023-01-25T07:17:02.923Z,4.78
2023-01-25T07:19:30.711Z,4.78
2023-01-25T07:21:57.445Z,4.83
2023-01-25T07:24:29.134Z,4.89
2023-01-25T07:26:56.199Z,4.94
2023-01-25T07:29:23.152Z,5.03
2023-01-25T07:31:49.956Z,5.08
2023-01-25T07:34:16.811Z,5.11
2023-01-25T07:36:43.986Z,5.15
2023-01-25T07:39:11.830Z,5.19
2023-01-25T07:41:39.272Z,5.21
2023-01-25T07:44:10.622Z,5.22
2023-01-25T07:46:45.021Z,5.32
2023-01-25T07:49:11.809Z,5.37
2023-01-25T07:51:38.617Z,5.41
2023-01-25T07:54:05.614Z,5.50
2023-01-25T07:56:40.777Z,5.45
2023-01-25T07:59:12.545Z,5.48
2023-01-25T08:01:40.148Z,5.49
2023-01-25T08:04:07.697Z,5.45
2023-01-25T08:06:39.065Z,5.49
2023-01-25T08:09:13.171Z,5.48
2023-01-25T08:11:41.816Z,5.50
2023-01-25T08:14:09.165Z,5.36
2023-01-25T08:16:35.975Z,5.46
2023-01-25T08:19:03.496Z,5.46
2023-01-25T08:21:33.085Z,5.51
2023-01-25T08:24:01.968Z,5.54
2023-01-25T08:26:29.171Z,5.50
2023-01-25T08:28:57.944Z,5.53
2023-01-25T08:31:27.281Z,5.49
2023-01-25T08:33:54.243Z,5.46
2023-01-25T08:36:21.459Z,5.46
2023-01-25T08:38:48.682Z,5.47
2023-01-25T08:41:19.502Z,5.48
2023-01-25T08:43:47.369Z,5.53
2023-01-25T08:46:17.130Z,5.56
2023-01-25T08:48:43.935Z,5.61
2023-01-25T08:51:16.581Z,5.64
2023-01-25T08:53:43.940Z,5.62
2023-01-25T08:56:13.732Z,5.57
2023-01-25T08:58:43.664Z,5.50
2023-01-25T09:01:13.909Z,5.48
2023-01-25T09:03:45.856Z,5.52
2023-01-25T09:06:13.672Z,5.53
2023-01-25T09:08:40.694Z,5.51
2023-01-25T09:11:13.646Z,5.52
2023-01-25T09:13:44.836Z,5.52
2023-01-25T09:16:14.319Z,5.47
2023-01-25T09:18:43.418Z,5.48
2023-01-25T09:21:16.714Z,5.53
2023-01-25T09:24:05.457Z,5.41
2023-01-25T09:26:34.553Z,5.49
2023-01-25T09:29:01.415Z,5.50
2023-01-25T09:31:29.508Z,5.57
2023-01-25T09:34:09.054Z,5.63
2023-01-25T09:36:36.545Z,5.67
2023-01-25T09:39:03.683Z,5.68
2023-01-25T09:41:33.369Z,5.79
2023-01-25T09:44:37.449Z,5.92
2023-01-25T09:47:33.599Z,5.98
2023-01-25T09:50:09.855Z,6.09
2023-01-25T09:53:01.456Z,6.17
2023-01-25T09:55:30.508Z,6.23
2023-01-25T09:58:00.591Z,6.29
2023-01-25T10:00:34.795Z,6.29
2023-01-25T10:03:16.172Z,6.35
2023-01-25T10:05:47.123Z,6.41
2023-01-25T10:08:57.142Z,6.54
2023-01-25T10:11:27.925Z,6.66
2023-01-25T10:13:56.493Z,6.76
2023-01-25T10:16:50.997Z,6.89
2023-01-25T10:19:39.957Z,6.98
2023-01-25T10:22:12.428Z,7.09
2023-01-25T10:25:07.639Z,7.17
2023-01-25T10:27:54.026Z,7.33
2023-01-25T10:30:28.866Z,7.41
2023-01-25T10:32:59.708Z,7.46
2023-01-25T10:35:36.122Z,7.52
2023-01-25T10:38:11.720Z,7.54
2023-01-25T10:40:52.653Z,7.50
2023-01-25T10:43:22.380Z,7.44
2023-01-25T10:45:50.585Z,7.41
2023-01-25T10:48:43.502Z,7.35
2023-01-25T10:51:10.294Z,7.22
2023-01-25T10:53:44.265Z,7.19
2023-01-25T10:56:11.125Z,7.16
2023-01-25T10:58:42.765Z,7.10
2023-01-25T11:01:24.369Z,7.08
2023-01-25T11:03:51.607Z,7.02
2023-01-25T11:06:31.196Z,7.10
2023-01-25T11:08:58.262Z,7.15
2023-01-25T11:11:37.941Z,7.29
2023-01-25T11:14:18.591Z,7.41
2023-01-25T11:16:48.640Z,7.46
2023-01-25T11:19:31.089Z,7.57
2023-01-25T11:21:59.040Z,7.67
2023-01-25T11:24:34.785Z,7.77
2023-01-25T11:27:26.855Z,7.87
2023-01-25T11:30:06.019Z,7.93
2023-01-25T11:32:33.398Z,7.99
2023-01-25T11:35:00.537Z,8.01
2023-01-25T11:37:46.229Z,8.02
2023-01-25T11:40:22.535Z,8.00
2023-01-25T11:43:15.877Z,8.01
2023-01-25T11:46:15.629Z,7.98
2023-01-25T11:48:51.072Z,7.93
2023-01-25T11:51:26.158Z,7.84
2023-01-25T11:54:07.890Z,7.79
2023-01-25T11:57:16.022Z,7.71
2023-01-25T11:59:42.964Z,7.71
2023-01-25T12:02:21.465Z,7.61
2023-01-25T12:05:21.023Z,7.56
2023-01-25T12:07:55.576Z,7.56
2023-01-25T12:10:47.678Z,7.52
2023-01-25T12:13:26.279Z,7.49
2023-01-25T12:16:20.732Z,7.54
2023-01-25T12:19:08.194Z,7.62
2023-01-25T12:21:50.487Z,7.57
2023-01-25T12:24:33.305Z,7.59
2023-01-25T12:27:12.288Z,7.60
2023-01-25T12:29:55.833Z,7.61
2023-01-25T12:32:37.253Z,7.58
2023-01-25T12:35:31.333Z,7.59
2023-01-25T12:38:04.824Z,7.58
2023-01-25T12:40:37.133Z,7.59
2023-01-25T12:43:09.377Z,7.65
2023-01-25T12:45:38.367Z,7.70
2023-01-25T12:48:17.797Z,7.77
2023-01-25T12:50:56.796Z,7.85
2023-01-25T12:53:41.676Z,7.84
2023-01-25T12:56:14.541Z,7.83
2023-01-25T12:58:51.365Z,7.77
2023-01-25T13:01:46.811Z,7.67
2023-01-25T13:04:34.657Z,7.59
2023-01-25T13:07:07.029Z,7.43
2023-01-25T13:10:01.588Z,7.31
2023-01-25T13:12:28.395Z,7.17
2023-01-25T13:14:55.197Z,7.03
2023-01-25T13:17:30.426Z,6.95
2023-01-25T13:19:57.481Z,6.85
2023-01-25T13:22:43.008Z,6.81
2023-01-25T13:25:16.083Z,6.79
2023-01-25T13:27:43.419Z,6.82
2023-01-25T13:30:16.360Z,6.82
2023-01-25T13:32:49.309Z,6.80
2023-01-25T13:35:26.775Z,6.72
2023-01-25T13:38:22.042Z,6.64
2023-01-25T13:41:03.677Z,6.53
2023-01-25T13:43:30.545Z,6.42
2023-01-25T13:45:57.724Z,6.38
2023-01-25T13:48:27.792Z,6.34
2023-01-25T13:51:05.238Z,6.29
2023-01-25T13:53:35.466Z,6.30
2023-01-25T13:56:03.246Z,6.27
2023-01-25T13:58:37.362Z,6.25
2023-01-25T14:01:07.673Z,6.23
2023-01-25T14:03:42.027Z,6.19
2023-01-25T14:06:18.651Z,6.11
2023-01-25T14:08:47.115Z,5.98
2023-01-25T14:11:26.535Z,5.87
2023-01-25T14:14:26.340Z,5.82
2023-01-25T14:17:03.752Z,5.76
2023-01-25T14:19:31.440Z,5.74
2023-01-25T14:22:33.352Z,5.69
2023-01-25T14:25:03.211Z,5.66
2023-01-25T14:27:30.589Z,5.64
2023-01-25T14:29:57.381Z,5.62
2023-01-25T14:32:27.548Z,5.63
2023-01-25T14:34:54.605Z,5.63
2023-01-25T14:37:22.341Z,5.62
2023-01-25T14:39:51.135Z,5.61
2023-01-25T14:42:18.704Z,5.61
2023-01-25T14:44:45.828Z,5.59
2023-01-25T14:47:32.389Z,5.57
2023-01-25T14:50:37.135Z,5.53
2023-01-25T14:53:17.739Z,5.48
2023-01-25T14:55:45.965Z,5.41
2023-01-25T14:58:22.562Z,5.40
2023-01-25T15:01:02.223Z,5.36
2023-01-25T15:03:31.223Z,5.31
2023-01-25T15:06:03.275Z,5.30
2023-01-25T15:08:36.407Z,5.27
2023-01-25T15:11:22.090Z,5.23
2023-01-25T15:13:48.983Z,5.20
2023-01-25T15:16:18.775Z,5.16
2023-01-25T15:18:53.439Z,5.12
2023-01-25T15:21:26.126Z,5.10
2023-01-25T15:23:55.336Z,5.08
2023-01-25T15:26:23.607Z,5.01
2023-01-25T15:28:52.462Z,4.97
2023-01-25T15:31:23.510Z,4.94
2023-01-25T15:33:50.700Z,4.90
2023-01-25T15:36:18.644Z,4.84
2023-01-25T15:38:46.158Z,4.81
2023-01-25T15:41:14.232Z,4.74
2023-01-25T15:43:41.402Z,4.71
2023-01-25T15:46:18.888Z,4.69
2023-01-25T15:48:47.135Z,4.65
2023-01-25T15:51:14.385Z,4.65
2023-01-25T15:53:41.179Z,4.61
2023-01-25T15:56:15.693Z,4.53
2023-01-25T15:58:45.799Z,4.44
2023-01-25T16:01:12.958Z,4.41
2023-01-25T16:03:41.688Z,4.35
2023-01-25T16:06:34.765Z,4.32
2023-01-25T16:09:10.882Z,4.24
2023-01-25T16:11:37.622Z,4.26
2023-01-25T16:14:04.452Z,4.26
2023-01-25T16:16:31.329Z,4.22
2023-01-25T16:18:58.128Z,4.20
2023-01-25T16:21:24.924Z,4.23
2023-01-25T16:23:51.802Z,4.22
2023-01-25T16:26:25.465Z,4.22
2023-01-25T16:28:52.545Z,4.24
2023-01-25T16:31:31.974Z,4.24
2023-01-25T16:34:00.127Z,4.22
2023-01-25T16:36:26.953Z,4.22
2023-01-25T16:38:53.777Z,4.27
2023-01-25T16:41:20.609Z,4.23
2023-01-25T16:43:48.968Z,4.23
2023-01-25T16:46:23.526Z,4.24
2023-01-25T16:48:52.524Z,4.28
2023-01-25T16:51:23.048Z,4.32
2023-01-25T16:53:52.254Z,4.32
2023-01-25T16:56:21.454Z,4.33
2023-01-25T16:58:51.101Z,4.35
2023-01-25T17:01:20.551Z,4.36
2023-01-25T17:03:47.844Z,4.35
2023-01-25T17:06:45.244Z,4.34
2023-01-25T17:09:23.343Z,4.35
2023-01-25T17:11:51.793Z,4.32
2023-01-25T17:14:19.518Z,4.33
2023-01-25T17:16:48.407Z,4.35
2023-01-25T17:19:17.203Z,4.35
2023-01-25T17:21:45.251Z,4.38
2023-01-25T17:24:19.434Z,4.39
2023-01-25T17:26:46.480Z,4.39
2023-01-25T17:29:13.925Z,4.36
2023-01-25T17:31:42.101Z,4.34
2023-01-25T17:34:13.325Z,4.37
2023-01-25T17:36:40.346Z,4.38
2023-01-25T17:39:08.097Z,4.37
2023-01-25T17:41:35.136Z,4.39
2023-01-25T17:44:02.144Z,4.41
2023-01-25T17:46:33.180Z,4.42
2023-01-25T17:49:02.341Z,4.42
2023-01-25T17:51:30.442Z,4.43
2023-01-25T17:53:58.169Z,4.46
2023-01-25T17:56:25.277Z,4.46
2023-01-25T17:58:52.200Z,4.46
2023-01-25T18:01:22.379Z,4.45
2023-01-25T18:03:50.833Z,4.44
2023-01-25T18:06:20.127Z,4.44
2023-01-25T18:08:50.502Z,4.45
2023-01-25T18:11:20.345Z,4.44
2023-01-25T18:13:49.392Z,4.43
2023-01-25T18:16:18.161Z,4.41
2023-01-25T18:18:45.769Z,4.38
2023-01-25T18:21:14.857Z,4.41
2023-01-25T18:23:46.311Z,4.39
2023-01-25T18:26:27.965Z,4.39
2023-01-25T18:28:59.539Z,4.38
2023-01-25T18:31:26.720Z,4.39
2023-01-25T18:33:53.645Z,4.39
2023-01-25T18:36:20.621Z,4.36
2023-01-25T18:38:47.508Z,4.33
2023-01-25T18:41:14.368Z,4.30
2023-01-25T18:43:41.128Z,4.23
2023-01-25T18:46:08.871Z,4.21
2023-01-25T18:48:36.349Z,4.20
2023-01-25T18:51:09.780Z,4.20
2023-01-25T18:53:39.015Z,4.17
2023-01-25T18:56:08.537Z,4.15
2023-01-25T18:58:37.148Z,4.12
2023-01-25T19:01:12.750Z,4.09
2023-01-25T19:03:40.112Z,4.10
2023-01-25T19:06:07.431Z,4.10
2023-01-25T19:08:36.600Z,4.12
2023-01-25T19:11:09.219Z,4.14
2023-01-25T19:13:38.036Z,4.14
2023-01-25T19:16:12.876Z,4.17
2023-01-25T19:18:46.139Z,4.19
2023-01-25T19:21:18.986Z,4.19
2023-01-25T19:23:49.417Z,4.19
2023-01-25T19:26:18.823Z,4.18
2023-01-25T19:28:46.669Z,4.18
2023-01-25T19:31:16.446Z,4.20
2023-01-25T19:33:44.732Z,4.22
2023-01-25T19:36:18.505Z,4.22
2023-01-25T19:38:47.440Z,4.24
2023-01-25T19:41:19.917Z,4.26
2023-01-25T19:43:47.488Z,4.27
2023-01-25T19:46:18.744Z,4.28
2023-01-25T19:48:49.871Z,4.27
2023-01-25T19:51:29.962Z,4.27
2023-01-25T19:54:05.574Z,4.28
2023-01-25T19:56:39.004Z,4.28
2023-01-25T19:59:08.204Z,4.28
2023-01-25T20:01:36.722Z,4.26
2023-01-25T20:04:08.284Z,4.24
2023-01-25T20:06:35.248Z,4.24
2023-01-25T20:09:02.355Z,4.24
2023-01-25T20:11:32.261Z,4.23
2023-01-25T20:14:01.891Z,4.19
2023-01-25T20:16:30.556Z,4.17
2023-01-25T20:18:57.479Z,4.05
2023-01-25T20:21:25.671Z,4.02
2023-01-25T20:24:00.269Z,4.00
2023-01-25T20:26:30.003Z,3.89
2023-01-25T20:28:58.854Z,3.82
2023-01-25T20:31:34.621Z,3.84
2023-01-25T20:34:04.729Z,3.75
2023-01-25T20:36:33.248Z,3.79
2023-01-25T20:39:00.383Z,3.79
2023-01-25T20:41:27.216Z,3.71
2023-01-25T20:44:01.960Z,3.68
2023-01-25T20:46:29.811Z,3.68
2023-01-25T20:48:56.637Z,3.68
2023-01-25T20:51:24.108Z,3.67
2023-01-25T20:53:51.233Z,3.64
2023-01-25T20:56:19.666Z,3.64
2023-01-25T20:58:51.566Z,3.67
2023-01-25T21:01:24.119Z,3.69
2023-01-25T21:03:54.421Z,3.72
2023-01-25T21:06:21.166Z,3.75
2023-01-25T21:08:48.004Z,3.78
2023-01-25T21:11:15.293Z,3.78
2023-01-25T21:13:42.756Z,3.82
2023-01-25T21:16:12.412Z,3.84
2023-01-25T21:18:44.839Z,3.87
2023-01-25T21:21:20.982Z,3.89
2023-01-25T21:23:49.917Z,3.91
2023-01-25T21:26:23.934Z,3.92
2023-01-25T21:28:52.129Z,3.93
2023-01-25T21:31:21.816Z,3.94
2023-01-25T21:33:49.274Z,3.94
2023-01-25T21:36:17.299Z,3.94
2023-01-25T21:38:46.314Z,3.97
2023-01-25T21:41:21.953Z,3.97
2023-01-25T21:44:07.786Z,4.00
2023-01-25T21:46:36.365Z,3.99
2023-01-25T21:49:25.014Z,3.98
2023-01-25T21:51:55.912Z,3.99
2023-01-25T21:54:24.878Z,4.00
2023-01-25T21:56:54.408Z,4.01
2023-01-25T21:59:22.490Z,4.01
2023-01-25T22:01:50.795Z,4.01
2023-01-25T22:04:19.388Z,4.01
2023-01-25T22:06:48.751Z,4.00
2023-01-25T22:09:16.468Z,3.95
2023-01-25T22:11:46.456Z,3.97
2023-01-25T22:14:23.824Z,3.95
2023-01-25T22:16:51.844Z,3.95
2023-01-25T22:19:18.915Z,3.95
2023-01-25T22:21:46.047Z,3.98
2023-01-25T22:24:14.594Z,4.00
2023-01-25T22:27:03.129Z,4.02
2023-01-25T22:29:31.270Z,4.03
2023-01-25T22:31:58.704Z,4.06
2023-01-25T22:34:25.514Z,4.09
2023-01-25T22:36:52.307Z,4.10
2023-01-25T22:39:19.090Z,4.09
2023-01-25T22:41:47.751Z,4.09
2023-01-25T22:44:14.806Z,4.09
2023-01-25T22:46:41.714Z,4.10
2023-01-25T22:49:09.140Z,4.08
2023-01-25T22:51:36.255Z,4.09
2023-01-25T22:54:05.211Z,4.07
2023-01-25T22:56:34.223Z,4.08
2023-01-25T22:59:01.879Z,4.07
2023-01-25T23:01:33.799Z,4.05
2023-01-25T23:04:01.752Z,4.04
2023-01-25T23:06:31.789Z,4.05
2023-01-25T23:09:01.454Z,4.02
2023-01-25T23:11:36.031Z,4.05
2023-01-25T23:14:24.699Z,4.02
2023-01-25T23:16:51.488Z,4.01
2023-01-25T23:19:19.005Z,4.01
2023-01-25T23:21:46.543Z,3.97
2023-01-25T23:24:14.476Z,3.93
2023-01-25T23:26:46.690Z,3.92
2023-01-25T23:29:14.531Z,3.90
2023-01-25T23:31:43.322Z,3.90
2023-01-25T23:34:11.696Z,3.88
2023-01-25T23:36:39.827Z,3.86
2023-01-25T23:39:06.853Z,3.85
2023-01-25T23:41:34.218Z,3.82
2023-01-25T23:44:02.123Z,3.80
2023-01-25T23:46:30.379Z,3.78
2023-01-25T23:48:57.206Z,3.77
2023-01-25T23:51:24.204Z,3.76
2023-01-25T23:53:53.427Z,3.75
2023-01-25T23:56:22.034Z,3.76
2023-01-25T23:58:50.539Z,3.75
